Analysing, reviewing and recording weather patterns in Dayboro since 2004. Challenging the main stream climate change thought, by being objective and providing facts.

Dayboro King Tide and all that stuff?

Will we have a Dayboro King Tide an all that stuff the BOM is forecasting? Like a massive rain event? I do not see it happening, we just to far away from the ocean for any King Tide impact (just kidding).

 

Dayboro rain this weekend?

Looking at my data, and remember I am not a Meteorolgisting una-versaty educated weather predictor person. (some even claim I am not allowed to say anything about the weather because of it) I do not see that amount of water in the environment. I have to admit it is a bit of wishful thinking that we do not get that amount of rain, because I turned my paddocks and put new grass seed in.

As you can see in the above picture, if we get the rain BOM says we might get… I be in a whole lot of trouble. The water of the road is funnelled across my paddocks, this creates a river and will force all the soil in my dam. Henderson cleaned the dam out for me perfectly a few yrs ago, although I recommend them it is not in the budget to do it again soon.

So time to hold back the tsunami of rain…

A tsunami of rain or a leaking tap?

I think it is going to be a leaking tap, based upon my reasoning above. As you would agree it is a very scientific reason. :-). I predict a steady drip, not much in respect of high volumes nice soaking drip….

A weather forecast is generated automatically every hour. Dayboro Weather Forecast

FORECAST RUN:

DATE TIME TEMP WIND R.HUM %SC %VST VIS PC/HR RN TOT WEATHER

12 Dec 6:00 17.3 0 93 100 37 17.9 1 0.0 M.C.-CLDY
No convective shower or thunderstorm activity expected
12 Dec 7:00 17.9 8 91 92 39 22.0 2 0.8 CLOUDY
Convective showers unlikely
12 Dec 8:00 19.6 11 82 91 42 23.2 3 0.8 CLOUDY
12 Dec 9:00 19.1 12 88 91 35 11.6 3 2.1 CLOUDY LIGHT RAIN
12 Dec 10:00 19.9 13 84 90 42 23.1 3 2.8 CLOUDY
12 Dec 11:00 21.9 13 75 87 47 23.2 3 2.8 M.C.-CLDY
12 Dec 12:00 21.8 11 78 84 43 14.1 3 3.5 M.C.-CLDY LIGHT RAIN
12 Dec 13:00 23.1 10 73 80 55 22.9 2 3.9 M.CLOUDY
12 Dec 14:00 24.4 12 66 79 57 22.9 3 3.9 M.CLOUDY
Scattered showers possible, but thunder unlikely
12 Dec 15:00 23.8 13 71 77 51 17.5 4 4.3 M.CLOUDY LIGHT RAIN
12 Dec 16:00 23.8 14 71 76 58 23.2 3 4.4 M.CLOUDY CHNC. SHWR
12 Dec 17:00 23.7 13 71 70 63 23.4 3 4.4 P.-M.CLDY CHNC. SHWR
12 Dec 18:00 22.6 11 77 64 62 20.9 3 4.5 P.-M.CLDY DRIZZLE
Convective showers unlikely
12 Dec 19:00 21.2 8 84 57 71 22.7 2 4.6 P.-M.CLDY
12 Dec 20:00 20.1 7 88 52 74 22.0 1 4.6 P.CLOUDY LIGHT DEW
12 Dec 21:00 19.1 7 94 49 46 4.8 1 5.0 P.CLOUDY LIGHT RAIN
12 Dec 22:00 18.6 6 97 44 35 1.0 1 5.2 P.CLOUDY MOD. FOG
12 Dec 23:00 18.3 6 98 59 32 0.9 1 5.2 P.CLOUDY MOD. FOG
————————————————————————-
Sunday

13 Dec 0:00 17.8 6 100 72 23 0.5 2 6.9 P.-M.CLDY LIGHT RAIN
13 Dec 1:00 17.7 6 100 82 26 0.8 2 7.8 M.CLOUDY MOD. FOG
13 Dec 2:00 17.5 7 100 84 25 0.9 2 7.8 M.CLOUDY MOD. FOG
13 Dec 3:00 17.5 7 100 86 21 0.8 2 8.7 M.C.-CLDY LIGHT RAIN
13 Dec 4:00 17.2 7 100 88 23 1.1 2 9.2 M.C.-CLDY MOD. FOG
13 Dec 5:00 17.2 8 100 92 21 1.2 3 9.2 M.C.-CLDY MOD. FOG
13 Dec 6:00 17.3 10 100 95 17 1.0 3 11.1 CLOUDY MOD. RAIN
13 Dec 7:00 17.4 11 99 97 20 2.2 3 12.0 CLOUDY MOD. FOG
13 Dec 8:00 17.7 13 99 98 21 3.3 3 12.0 CLOUDY MOD. FOG
13 Dec 9:00 17.7 14 100 98 17 1.9 3 13.7 DNS.OVCST LIGHT RAIN
13 Dec 10:00 18.0 15 99 99 22 6.0 3 14.6 DNS.OVCST LIGHT FOG
13 Dec 11:00 18.5 16 97 99 21 11.4 4 14.6 DNS.OVCST LIGHT FOG
13 Dec 12:00 18.3 17 100 100 14 3.4 5 17.0 DNS.OVCST MOD. RAIN
13 Dec 13:00 18.5 18 99 100 13 10.4 5 18.2 DNS.OVCST LIGHT FOG
13 Dec 14:00 18.7 17 98 100 12 11.2 6 18.2 DNS.OVCST CHNC. SHWR
13 Dec 15:00 18.5 15 100 100 9 3.9 6 19.5 DNS.OVCST LIGHT RAIN
13 Dec 16:00 18.5 14 100 100 8 4.9 7 20.1 DNS.OVCST CHNC. SHWR
13 Dec 17:00 18.5 14 100 100 8 4.8 6 20.1 DNS.OVCST CHNC. SHWR
13 Dec 18:00 18.4 13 100 100 8 3.0 7 21.4 DNS.OVCST LIGHT RAIN
13 Dec 19:00 18.3 13 100 100 8 4.5 6 22.0 DNS.OVCST CHNC. SHWR
13 Dec 20:00 18.2 12 100 100 9 3.6 6 22.0 DNS.OVCST CHNC. SHWR
SURFACE WIND NOW FROM 212
13 Dec 21:00 18.1 10 100 100 10 2.0 6 23.0 DNS.OVCST LIGHT RAIN
13 Dec 22:00 18.1 8 100 99 12 2.5 5 23.4 DNS.OVCST MOD. FOG
13 Dec 23:00 18.0 8 100 98 15 2.1 5 23.4 DNS.OVCST MOD. FOG
SURFACE WIND NOW FROM 254
————————————————————————-
Monday

14 Dec 0:00 17.8 8 99 95 17 1.6 4 23.5 CLOUDY DRIZZLE
14 Dec 1:00 17.7 9 99 91 20 1.4 4 23.6 CLOUDY MOD. FOG
14 Dec 2:00 17.7 8 97 85 22 1.2 3 23.6 M.C.-CLDY MOD. FOG
14 Dec 3:00 17.7 7 96 79 24 1.1 3 23.6 M.CLOUDY DRIZZLE
14 Dec 4:00 17.4 6 97 72 25 0.9 2 23.7 M.CLOUDY MOD. FOG
14 Dec 5:00 17.1 5 97 58 29 0.8 1 23.7 P.-M.CLDY MOD. FOG
Convective showers very unlikely
14 Dec 6:00 17.3 3 96 43 39 1.3 1 23.7 P.CLOUDY MOD. FOG
14 Dec 7:00 18.3 3 92 26 72 13.1 0 23.7 FAIR-P.C. LIGHT FOG
14 Dec 8:00 21.0 3 80 30 86 21.5 1 23.7 FAIR-P.C. LIGHT DEW
SURFACE WIND NOW FROM 75
14 Dec 9:00 24.9 4 65 34 84 21.4 1 23.7 FAIR-P.C.
Convective showers unlikely
14 Dec 10:00 27.6 4 55 38 82 21.6 2 23.7 P.CLOUDY
14 Dec 11:00 29.3 6 50 36 84 21.9 2 23.7 FAIR-P.C.
Scattered showers or thundershowers possible
14 Dec 12:00 30.3 7 47 51 76 22.4 4 23.7 P.CLOUDY CHNC. SHWR
Scattered thunderstorms likely
14 Dec 13:00 30.7 9 45 33 89 22.9 1 23.7 FAIR-P.C.
Scattered showers or thundershowers possible
14 Dec 14:00 30.9 10 45 42 87 23.4 1 23.7 FAIR-P.C.
14 Dec 15:00 30.8 9 45 67 72 23.7 5 23.7 P.-M.CLDY CHNC. SHWR
Scattered thunderstorms likely
14 Dec 16:00 30.3 10 47 59 81 23.9 1 23.7 P.CLOUDY
Scattered showers or thundershowers possible
14 Dec 17:00 29.0 8 51 68 75 23.8 2 23.7 P.CLOUDY
14 Dec 18:00 24.2 6 74 77 55 12.4 4 24.8 M.CLOUDY LIGHT RAIN
14 Dec 19:00 21.8 4 87 83 60 21.9 4 25.3 M.CLOUDY CHNC. SHWR
Scattered showers possible, but thunder unlikely
14 Dec 20:00 21.0 3 90 82 55 17.1 3 25.3 M.CLOUDY MOD. DEW
Convective showers unlikely
14 Dec 21:00 20.2 2 95 81 39 5.0 3 26.0 M.CLOUDY LIGHT RAIN
14 Dec 22:00 19.7 1 98 80 35 1.9 2 26.3 P.-M.CLDY MOD. FOG
14 Dec 23:00 19.3 1 99 78 32 1.1 1 26.3 P.-M.CLDY MOD. FOG
SURFACE WIND NOW FROM 293
————————————————————————-
Tuesday

15 Dec 0:00 19.2 2 99 79 27 0.9 2 26.6 M.CLOUDY LIGHT RAIN
15 Dec 1:00 18.8 2 100 72 28 0.6 1 26.8 P.-M.CLDY MOD. FOG
Convective showers very unlikely
15 Dec 2:00 18.7 2 100 70 28 0.7 2 26.8 P.-M.CLDY MOD. FOG
SURFACE WIND NOW FROM 236
15 Dec 3:00 18.7 1 99 73 28 1.1 3 26.8 M.CLOUDY MOD. FOG
15 Dec 4:00 18.6 0 98 82 25 1.6 4 26.8 M.C.-CLDY CHNC. SHWR
15 Dec 5:00 18.5 0 97 80 26 1.6 4 26.8 M.CLOUDY CHNC. SHWR
No convective shower or thunderstorm activity expected
SURFACE WIND NOW FROM 45
15 Dec 6:00 18.5 0 99 78 30 2.3 4 26.8 M.CLOUDY CHNC. SHWR
15 Dec 7:00 19.5 0 96 76 37 5.1 4 26.8 M.CLOUDY CHNC. SHWR
15 Dec 8:00 20.6 1 93 73 44 9.2 4 26.8 M.CLOUDY CHNC. SHWR
15 Dec 9:00 21.9 3 89 70 53 15.0 4 26.8 M.CLOUDY DRIZZLE
Convective showers very unlikely
15 Dec 10:00 24.0 5 81 67 60 16.0 4 26.8 P.-M.CLDY CHNC. SHWR
15 Dec 11:00 26.7 7 70 66 61 16.6 4 26.8 P.-M.CLDY CHNC. SHWR
15 Dec 12:00 28.2 9 65 65 57 15.9 5 26.9 P.-M.CLDY DRIZZLE
Convective showers unlikely
15 Dec 13:00 29.7 12 60 63 63 18.2 6 26.9 P.-M.CLDY CHNC. SHWR
15 Dec 14:00 30.5 12 57 63 64 19.1 6 26.9 P.-M.CLDY CHNC. SHWR
Scattered showers or thundershowers possible
15 Dec 15:00 28.3 12 68 62 55 13.2 7 27.6 P.-M.CLDY LIGHT RAIN
Scattered showers possible, but thunder unlikely
15 Dec 16:00 28.0 11 71 62 65 20.0 6 27.9 P.-M.CLDY CHNC. SHWR
Convective showers unlikely
15 Dec 17:00 27.6 10 72 80 54 20.0 7 27.9 M.CLOUDY PROB. SHWR
Scattered showers possible, but thunder unlikely
15 Dec 18:00 25.5 8 84 92 37 13.9 9 28.5 M.C.-CLDY LIGHT RAIN
15 Dec 19:00 24.5 6 90 100 26 17.2 10 28.7 CLOUDY PROB. SHWR
15 Dec 20:00 24.1 5 92 97 28 11.4 8 28.7 CLOUDY PROB. SHWR
15 Dec 21:00 23.6 4 94 97 26 5.1 7 28.8 CLOUDY DRIZZLE
Convective showers unlikely
15 Dec 22:00 23.3 3 95 98 26 3.2 5 28.9 CLOUDY CHNC. SHWR
15 Dec 23:00 23.1 2 96 95 26 2.2 4 28.9 M.C.-CLDY CHNC. SHWR
SURFACE WIND NOW FROM 323
————————————————————————-
Wednesday

16 Dec 0:00 22.8 2 97 93 25 1.5 4 28.9 M.C.-CLDY CHNC. SHWR
Convective showers very unlikely
16 Dec 1:00 22.5 1 97 91 26 1.4 3 28.9 M.C.-CLDY CHNC. SHWR
16 Dec 2:00 22.3 1 97 90 26 1.4 4 28.9 M.C.-CLDY CHNC. SHWR
SURFACE WIND NOW FROM 225
16 Dec 3:00 22.1 1 97 89 25 1.4 4 28.9 M.C.-CLDY CHNC. SHWR
No convective shower or thunderstorm activity expected
16 Dec 4:00 21.8 0 97 89 25 1.5 4 28.9 M.C.-CLDY CHNC. SHWR
16 Dec 5:00 21.6 0 97 80 28 1.2 3 28.9 M.CLOUDY CHNC. SHWR
SURFACE WIND NOW FROM 117
16 Dec 6:00 21.6 0 96 67 33 1.4 2 28.9 P.-M.CLDY MOD. FOG
16 Dec 7:00 21.7 0 97 50 37 1.5 2 28.9 P.CLOUDY MOD. FOG
16 Dec 8:00 22.0 1 97 47 36 1.2 2 28.9 P.CLOUDY MOD. FOG
SURFACE WIND NOW FROM 63
16 Dec 9:00 22.3 2 97 44 36 1.1 2 28.9 P.CLOUDY MOD. FOG
16 Dec 10:00 23.0 4 95 41 46 2.5 2 28.9 P.CLOUDY MOD. FOG
16 Dec 11:00 24.4 6 89 32 81 14.3 1 28.9 FAIR-P.C. HEAVY DEW
16 Dec 12:00 27.1 8 77 47 74 15.0 3 28.9 P.CLOUDY CHNC. SHWR
Convective showers very unlikely
16 Dec 13:00 30.1 10 64 15 90 15.9 0 28.9 SUNNY
16 Dec 14:00 31.7 12 58 16 90 17.0 0 28.9 SUNNY
16 Dec 15:00 32.2 12 56 49 76 18.0 4 28.9 P.CLOUDY CHNC. SHWR
Convective showers unlikely
16 Dec 16:00 32.3 13 56 18 91 18.9 0 28.9 SUNNY
Convective showers very unlikely
16 Dec 17:00 31.6 12 58 29 89 19.6 1 28.9 M.SUNNY
16 Dec 18:00 29.9 10 64 57 74 19.9 4 28.9 P.CLOUDY CHNC. SHWR
Convective showers unlikely
16 Dec 19:00 27.4 8 74 48 82 19.7 1 28.9 P.CLOUDY
Convective showers very unlikely
16 Dec 20:00 25.7 7 83 47 81 19.1 1 28.9 P.CLOUDY
16 Dec 21:00 24.8 6 87 55 73 18.5 3 28.9 P.CLOUDY CHNC. SHWR
16 Dec 22:00 24.1 5 90 48 66 13.2 2 28.9 P.CLOUDY HEAVY DEW
No convective shower or thunderstorm activity expected
16 Dec 23:00 23.6 5 93 45 55 5.1 1 28.9 P.CLOUDY LIGHT FOG
SURFACE WIND NOW FROM 21
————————————————————————-
Thursday

17 Dec 0:00 23.3 4 94 53 41 2.2 2 28.9 P.CLOUDY MOD. FOG
Convective showers very unlikely
17 Dec 1:00 22.9 4 95 40 40 1.3 1 28.9 FAIR-P.C. MOD. FOG
17 Dec 2:00 22.6 3 95 41 39 1.2 1 28.9 P.CLOUDY MOD. FOG
17 Dec 3:00 22.3 2 95 53 36 1.4 2 28.9 P.CLOUDY DRIZZLE
17 Dec 4:00 22.1 1 95 43 38 1.2 1 28.9 P.CLOUDY MOD. FOG
17 Dec 5:00 21.8 1 95 50 37 1.2 1 28.9 P.CLOUDY MOD. FOG
17 Dec 6:00 22.0 1 95 56 39 2.3 2 28.9 P.-M.CLDY DRIZZLE
17 Dec 7:00 22.6 1 96 62 41 2.7 2 28.9 P.-M.CLDY MOD. FOG
Convective showers unlikely
17 Dec 8:00 23.2 2 95 62 40 2.6 2 28.9 P.-M.CLDY MOD. FOG
17 Dec 9:00 23.6 4 96 61 36 2.1 3 29.1 P.-M.CLDY DRIZZLE
17 Dec 10:00 24.3 6 94 61 42 3.0 2 29.2 P.-M.CLDY MOD. FOG
17 Dec 11:00 25.5 7 90 58 68 14.3 2 29.2 P.CLOUDY HEAVY DEW
17 Dec 12:00 26.1 8 89 64 58 9.7 4 30.1 P.-M.CLDY LIGHT RAIN
Scattered showers possible, but thunder unlikely
17 Dec 13:00 27.8 10 81 54 79 15.9 1 30.6 P.CLOUDY LIGHT DEW
Convective showers unlikely
17 Dec 14:00 30.1 11 70 53 80 16.5 2 30.6 P.CLOUDY
Scattered showers possible, but thunder unlikely
17 Dec 15:00 27.4 11 86 66 56 7.4 5 32.5 P.-M.CLDY MOD. RAIN
Scattered showers or thundershowers possible
17 Dec 16:00 27.7 11 84 51 81 17.3 1 32.9 P.CLOUDY
Scattered showers possible, but thunder unlikely
17 Dec 17:00 27.7 11 83 44 83 17.6 1 32.9 FAIR-P.C.
17 Dec 18:00 26.9 9 86 58 72 17.6 3 32.9 P.CLOUDY CHNC. SHWR
17 Dec 19:00 25.7 9 90 29 64 7.2 1 32.9 FAIR-P.C. LIGHT FOG
Convective showers unlikely
17 Dec 20:00 25.0 7 93 30 42 1.3 1 32.9 FAIR-P.C. MOD. FOG
17 Dec 21:00 24.5 6 94 50 34 1.0 2 32.9 P.CLOUDY MOD. FOG
17 Dec 22:00 24.1 5 95 32 33 0.6 1 32.9 FAIR-P.C. MOD. FOG
17 Dec 23:00 23.7 5 97 47 29 0.5 2 32.9 P.CLOUDY MOD. FOG
————————————————————————-
Friday

18 Dec 0:00 23.4 5 98 62 25 0.6 3 33.0 P.-M.CLDY DRIZZLE
18 Dec 1:00 23.2 5 99 75 24 0.8 5 33.0 M.CLOUDY CHNC. SHWR
Scattered showers possible, but thunder unlikely
18 Dec 2:00 23.0 4 98 75 24 0.8 4 33.0 M.CLOUDY CHNC. SHWR
18 Dec 3:00 22.9 4 98 74 24 0.8 4 33.1 M.CLOUDY DRIZZLE
18 Dec 4:00 22.8 3 98 74 25 0.8 4 33.1 M.CLOUDY CHNC. SHWR
Convective showers unlikely
18 Dec 5:00 22.6 3 97 61 27 0.6 3 33.1 P.-M.CLDY CHNC. SHWR
18 Dec 6:00 22.6 3 97 52 28 0.6 2 33.1 P.CLOUDY DRIZZLE
18 Dec 7:00 22.8 3 97 33 30 0.5 1 33.1 FAIR-P.C. MOD. FOG
Convective showers very unlikely
18 Dec 8:00 23.0 3 98 32 30 0.5 1 33.1 FAIR-P.C. MOD. FOG
18 Dec 9:00 23.2 2 98 30 31 0.5 1 33.1 FAIR-P.C. MOD. FOG
18 Dec 10:00 23.5 2 98 29 32 0.5 1 33.1 FAIR-P.C. MOD. FOG
18 Dec 11:00 23.9 2 98 33 31 0.5 1 33.1 FAIR-P.C. MOD. FOG
SURFACE WIND NOW FROM 48
18 Dec 12:00 24.4 4 97 47 32 0.8 3 33.1 P.CLOUDY CHNC. SHWR
Convective showers unlikely
18 Dec 13:00 24.9 5 95 41 37 1.2 2 33.1 P.CLOUDY CHNC. SHWR
18 Dec 14:00 25.5 7 92 37 55 4.4 2 33.1 FAIR-P.C. LIGHT FOG
18 Dec 15:00 26.3 8 87 49 72 15.0 4 33.1 P.CLOUDY CHNC. SHWR
Scattered showers or thundershowers possible
18 Dec 16:00 27.2 10 82 29 85 15.6 1 33.1 FAIR-P.C. HEAVY DEW
Scattered showers possible, but thunder unlikely
18 Dec 17:00 27.3 10 81 21 88 16.2 1 33.1 M.SUNNY MOD. DEW
Convective showers unlikely
18 Dec 18:00 26.5 9 84 48 75 16.5 3 33.1 P.CLOUDY CHNC. SHWR
Scattered showers possible, but thunder unlikely
18 Dec 19:00 25.1 9 90 5 72 8.6 0 33.1 CLEAR LIGHT FOG
Convective showers unlikely
18 Dec 20:00 24.3 7 93 7 46 1.4 0 33.1 CLEAR MOD. FOG
Convective showers very unlikely
18 Dec 21:00 23.8 5 94 48 37 1.2 2 33.1 P.CLOUDY MOD. FOG
Convective showers unlikely
18 Dec 22:00 23.4 4 96 11 36 0.6 0 33.1 CLEAR MOD. FOG
Convective showers very unlikely
18 Dec 23:00 22.9 4 97 34 32 0.5 0 33.1 FAIR-P.C. MOD. FOG
————————————————————————-
Saturday

19 Dec 0:00 22.6 3 98 64 29 0.7 2 33.1 P.-M.CLDY MOD. FOG
Convective showers unlikely
19 Dec 1:00 22.3 2 98 70 28 0.6 2 33.1 P.-M.CLDY MOD. FOG
Convective showers very unlikely
19 Dec 2:00 22.1 2 99 67 27 0.6 2 33.1 P.-M.CLDY MOD. FOG
SURFACE WIND NOW FROM 346
19 Dec 3:00 21.8 2 99 66 26 0.7 3 33.1 P.-M.CLDY MOD. FOG
19 Dec 4:00 21.9 2 98 68 25 0.8 3 33.1 P.-M.CLDY CHNC. SHWR
19 Dec 5:00 21.8 2 97 54 28 0.7 2 33.1 P.CLOUDY MOD. FOG
19 Dec 6:00 22.1 2 96 46 32 0.9 2 33.1 P.CLOUDY MOD. FOG

Summary (min and max values):

DATE MIN MAX MIN AT MAX AT DEW PT R.HUM %V.S.T. WIND SUNRISE SUNSET
———————————————————————————
12 Dec* 16.9 25.7 6:10 14:20 16 18 65 100 23 74 0 14 4:49 18:39
13 Dec 17.0 19.9 5:00 11:20 17 18 96 100 8 27 6 18 4:49 18:40
14 Dec 16.8 31.8 5:10 14:20 17 20 45 99 17 89 1 10 4:50 18:40
15 Dec 18.1 31.5 5:40 14:20 18 23 57 100 25 65 0 12 4:50 18:41
16 Dec 21.3 32.9 5:50 15:10 21 23 56 98 25 91 0 13 4:50 18:41
17 Dec 21.5 31.4 5:10 14:20 21 25 68 98 25 85 1 12 4:50 18:42
18 Dec 22.3 27.8 5:20 16:30 22 24 81 99 24 91 2 10 4:51 18:42
19 Dec* 21.5 22.7 2:50 0:00 21 22 96 100 25 32 2 3 4:51 18:43

* incomplete data

Supplemental data:(means, except total solar energy, %PCH, PTOT, & max snow depth)
DATE TEMP DEW PT %RH W.SPD RS.WS RS.WD %SC %SUN Wh/m^2 %PCH PTOT SN.DEP MAX SD
———————————————————————————
12 Dec* 20.9 17.7 82 9.9 9.9 146 74 16 4199 83 6.49 0.0 0.0
13 Dec 18.0 17.9 100 11.7 10.8 152 96 1 1395 91 17.01 0.0 0.0
14 Dec 23.0 17.9 77 5.5 1.5 74 62 62 7198 85 3.04 0.0 0.0
15 Dec 23.4 20.6 86 4.9 4.5 42 78 30 4978 92 2.33 0.0 0.0
16 Dec 25.4 22.1 84 5.2 5.0 61 53 62 5905 11 0.00 0.0 0.0
17 Dec 24.7 23.1 91 5.9 5.9 21 51 48 5228 84 4.12 0.0 0.0
18 Dec 24.1 23.1 94 4.9 4.8 40 42 35 3760 44 0.08 0.0 0.0
19 Dec* 22.1 21.7 98 2.0 1.7 16 63 51 39 24 0.03 0.0 0.0

* incomplete data

Nighttime lows and daytime highs:

Sat Sun Mon Tue Wed Thu Fri Sat
12 Dec 13 Dec 14 Dec 15 Dec 16 Dec 17 Dec 18 Dec 19 Dec
|17 26|17 20|17 32|18 31|21 33|21 31|22 28|22 M|

Nighttime grass lows and daytime grass highs:

Sat Sun Mon Tue Wed Thu Fri Sat
12 Dec 13 Dec 14 Dec 15 Dec 16 Dec 17 Dec 18 Dec 19 Dec
|15 28|17 20|17 37|17 34|21 37|21 35|22 30|21 M|

Totals ( 6 complete days ) :

AV MIN AV MAX AV DP AV RH AV WS RES WS RES WD AV SC %SUN AV PR AV SD
19.5 29.2 20.8 89 6.4 3.3 73 64 40 4.43 0.0

FORECAST RUN:

DATE TIME TEMP WIND R.HUM %SC %VST VIS PC/HR RN TOT WEATHER

12 Dec 6:00 17.3 0 93 100 37 17.9 1 0.0 M.C.-CLDY
No convective shower or thunderstorm activity expected
12 Dec 7:00 17.9 8 91 92 39 22.0 2 0.8 CLOUDY
Convective showers unlikely
12 Dec 8:00 19.6 11 82 91 42 23.2 3 0.8 CLOUDY
12 Dec 9:00 19.1 12 88 91 35 11.6 3 2.1 CLOUDY LIGHT RAIN
12 Dec 10:00 19.9 13 84 90 42 23.1 3 2.8 CLOUDY
12 Dec 11:00 21.9 13 75 87 47 23.2 3 2.8 M.C.-CLDY
12 Dec 12:00 21.8 11 78 84 43 14.1 3 3.5 M.C.-CLDY LIGHT RAIN
12 Dec 13:00 23.1 10 73 80 55 22.9 2 3.9 M.CLOUDY
12 Dec 14:00 24.4 12 66 79 57 22.9 3 3.9 M.CLOUDY
Scattered showers possible, but thunder unlikely
12 Dec 15:00 23.8 13 71 77 51 17.5 4 4.3 M.CLOUDY LIGHT RAIN
12 Dec 16:00 23.8 14 71 76 58 23.2 3 4.4 M.CLOUDY CHNC. SHWR
12 Dec 17:00 23.7 13 71 70 63 23.4 3 4.4 P.-M.CLDY CHNC. SHWR
12 Dec 18:00 22.6 11 77 64 62 20.9 3 4.5 P.-M.CLDY DRIZZLE
Convective showers unlikely
12 Dec 19:00 21.2 8 84 57 71 22.7 2 4.6 P.-M.CLDY
12 Dec 20:00 20.1 7 88 52 74 22.0 1 4.6 P.CLOUDY LIGHT DEW
12 Dec 21:00 19.1 7 94 49 46 4.8 1 5.0 P.CLOUDY LIGHT RAIN
12 Dec 22:00 18.6 6 97 44 35 1.0 1 5.2 P.CLOUDY MOD. FOG
12 Dec 23:00 18.3 6 98 59 32 0.9 1 5.2 P.CLOUDY MOD. FOG
————————————————————————-
Sunday

13 Dec 0:00 17.8 6 100 72 23 0.5 2 6.9 P.-M.CLDY LIGHT RAIN
13 Dec 1:00 17.7 6 100 82 26 0.8 2 7.8 M.CLOUDY MOD. FOG
13 Dec 2:00 17.5 7 100 84 25 0.9 2 7.8 M.CLOUDY MOD. FOG
13 Dec 3:00 17.5 7 100 86 21 0.8 2 8.7 M.C.-CLDY LIGHT RAIN
13 Dec 4:00 17.2 7 100 88 23 1.1 2 9.2 M.C.-CLDY MOD. FOG
13 Dec 5:00 17.2 8 100 92 21 1.2 3 9.2 M.C.-CLDY MOD. FOG
13 Dec 6:00 17.3 10 100 95 17 1.0 3 11.1 CLOUDY MOD. RAIN
13 Dec 7:00 17.4 11 99 97 20 2.2 3 12.0 CLOUDY MOD. FOG
13 Dec 8:00 17.7 13 99 98 21 3.3 3 12.0 CLOUDY MOD. FOG
13 Dec 9:00 17.7 14 100 98 17 1.9 3 13.7 DNS.OVCST LIGHT RAIN
13 Dec 10:00 18.0 15 99 99 22 6.0 3 14.6 DNS.OVCST LIGHT FOG
13 Dec 11:00 18.5 16 97 99 21 11.4 4 14.6 DNS.OVCST LIGHT FOG
13 Dec 12:00 18.3 17 100 100 14 3.4 5 17.0 DNS.OVCST MOD. RAIN
13 Dec 13:00 18.5 18 99 100 13 10.4 5 18.2 DNS.OVCST LIGHT FOG
13 Dec 14:00 18.7 17 98 100 12 11.2 6 18.2 DNS.OVCST CHNC. SHWR
13 Dec 15:00 18.5 15 100 100 9 3.9 6 19.5 DNS.OVCST LIGHT RAIN
13 Dec 16:00 18.5 14 100 100 8 4.9 7 20.1 DNS.OVCST CHNC. SHWR
13 Dec 17:00 18.5 14 100 100 8 4.8 6 20.1 DNS.OVCST CHNC. SHWR
13 Dec 18:00 18.4 13 100 100 8 3.0 7 21.4 DNS.OVCST LIGHT RAIN
13 Dec 19:00 18.3 13 100 100 8 4.5 6 22.0 DNS.OVCST CHNC. SHWR
13 Dec 20:00 18.2 12 100 100 9 3.6 6 22.0 DNS.OVCST CHNC. SHWR
SURFACE WIND NOW FROM 212
13 Dec 21:00 18.1 10 100 100 10 2.0 6 23.0 DNS.OVCST LIGHT RAIN
13 Dec 22:00 18.1 8 100 99 12 2.5 5 23.4 DNS.OVCST MOD. FOG
13 Dec 23:00 18.0 8 100 98 15 2.1 5 23.4 DNS.OVCST MOD. FOG
SURFACE WIND NOW FROM 254
————————————————————————-
Monday

14 Dec 0:00 17.8 8 99 95 17 1.6 4 23.5 CLOUDY DRIZZLE
14 Dec 1:00 17.7 9 99 91 20 1.4 4 23.6 CLOUDY MOD. FOG
14 Dec 2:00 17.7 8 97 85 22 1.2 3 23.6 M.C.-CLDY MOD. FOG
14 Dec 3:00 17.7 7 96 79 24 1.1 3 23.6 M.CLOUDY DRIZZLE
14 Dec 4:00 17.4 6 97 72 25 0.9 2 23.7 M.CLOUDY MOD. FOG
14 Dec 5:00 17.1 5 97 58 29 0.8 1 23.7 P.-M.CLDY MOD. FOG
Convective showers very unlikely
14 Dec 6:00 17.3 3 96 43 39 1.3 1 23.7 P.CLOUDY MOD. FOG
14 Dec 7:00 18.3 3 92 26 72 13.1 0 23.7 FAIR-P.C. LIGHT FOG
14 Dec 8:00 21.0 3 80 30 86 21.5 1 23.7 FAIR-P.C. LIGHT DEW
SURFACE WIND NOW FROM 75
14 Dec 9:00 24.9 4 65 34 84 21.4 1 23.7 FAIR-P.C.
Convective showers unlikely
14 Dec 10:00 27.6 4 55 38 82 21.6 2 23.7 P.CLOUDY
14 Dec 11:00 29.3 6 50 36 84 21.9 2 23.7 FAIR-P.C.
Scattered showers or thundershowers possible
14 Dec 12:00 30.3 7 47 51 76 22.4 4 23.7 P.CLOUDY CHNC. SHWR
Scattered thunderstorms likely
14 Dec 13:00 30.7 9 45 33 89 22.9 1 23.7 FAIR-P.C.
Scattered showers or thundershowers possible
14 Dec 14:00 30.9 10 45 42 87 23.4 1 23.7 FAIR-P.C.
14 Dec 15:00 30.8 9 45 67 72 23.7 5 23.7 P.-M.CLDY CHNC. SHWR
Scattered thunderstorms likely
14 Dec 16:00 30.3 10 47 59 81 23.9 1 23.7 P.CLOUDY
Scattered showers or thundershowers possible
14 Dec 17:00 29.0 8 51 68 75 23.8 2 23.7 P.CLOUDY
14 Dec 18:00 24.2 6 74 77 55 12.4 4 24.8 M.CLOUDY LIGHT RAIN
14 Dec 19:00 21.8 4 87 83 60 21.9 4 25.3 M.CLOUDY CHNC. SHWR
Scattered showers possible, but thunder unlikely
14 Dec 20:00 21.0 3 90 82 55 17.1 3 25.3 M.CLOUDY MOD. DEW
Convective showers unlikely
14 Dec 21:00 20.2 2 95 81 39 5.0 3 26.0 M.CLOUDY LIGHT RAIN
14 Dec 22:00 19.7 1 98 80 35 1.9 2 26.3 P.-M.CLDY MOD. FOG
14 Dec 23:00 19.3 1 99 78 32 1.1 1 26.3 P.-M.CLDY MOD. FOG
SURFACE WIND NOW FROM 293
————————————————————————-
Tuesday

15 Dec 0:00 19.2 2 99 79 27 0.9 2 26.6 M.CLOUDY LIGHT RAIN
15 Dec 1:00 18.8 2 100 72 28 0.6 1 26.8 P.-M.CLDY MOD. FOG
Convective showers very unlikely
15 Dec 2:00 18.7 2 100 70 28 0.7 2 26.8 P.-M.CLDY MOD. FOG
SURFACE WIND NOW FROM 236
15 Dec 3:00 18.7 1 99 73 28 1.1 3 26.8 M.CLOUDY MOD. FOG
15 Dec 4:00 18.6 0 98 82 25 1.6 4 26.8 M.C.-CLDY CHNC. SHWR
15 Dec 5:00 18.5 0 97 80 26 1.6 4 26.8 M.CLOUDY CHNC. SHWR
No convective shower or thunderstorm activity expected
SURFACE WIND NOW FROM 45
15 Dec 6:00 18.5 0 99 78 30 2.3 4 26.8 M.CLOUDY CHNC. SHWR
15 Dec 7:00 19.5 0 96 76 37 5.1 4 26.8 M.CLOUDY CHNC. SHWR
15 Dec 8:00 20.6 1 93 73 44 9.2 4 26.8 M.CLOUDY CHNC. SHWR
15 Dec 9:00 21.9 3 89 70 53 15.0 4 26.8 M.CLOUDY DRIZZLE
Convective showers very unlikely
15 Dec 10:00 24.0 5 81 67 60 16.0 4 26.8 P.-M.CLDY CHNC. SHWR
15 Dec 11:00 26.7 7 70 66 61 16.6 4 26.8 P.-M.CLDY CHNC. SHWR
15 Dec 12:00 28.2 9 65 65 57 15.9 5 26.9 P.-M.CLDY DRIZZLE
Convective showers unlikely
15 Dec 13:00 29.7 12 60 63 63 18.2 6 26.9 P.-M.CLDY CHNC. SHWR
15 Dec 14:00 30.5 12 57 63 64 19.1 6 26.9 P.-M.CLDY CHNC. SHWR
Scattered showers or thundershowers possible
15 Dec 15:00 28.3 12 68 62 55 13.2 7 27.6 P.-M.CLDY LIGHT RAIN
Scattered showers possible, but thunder unlikely
15 Dec 16:00 28.0 11 71 62 65 20.0 6 27.9 P.-M.CLDY CHNC. SHWR
Convective showers unlikely
15 Dec 17:00 27.6 10 72 80 54 20.0 7 27.9 M.CLOUDY PROB. SHWR
Scattered showers possible, but thunder unlikely
15 Dec 18:00 25.5 8 84 92 37 13.9 9 28.5 M.C.-CLDY LIGHT RAIN
15 Dec 19:00 24.5 6 90 100 26 17.2 10 28.7 CLOUDY PROB. SHWR
15 Dec 20:00 24.1 5 92 97 28 11.4 8 28.7 CLOUDY PROB. SHWR
15 Dec 21:00 23.6 4 94 97 26 5.1 7 28.8 CLOUDY DRIZZLE
Convective showers unlikely
15 Dec 22:00 23.3 3 95 98 26 3.2 5 28.9 CLOUDY CHNC. SHWR
15 Dec 23:00 23.1 2 96 95 26 2.2 4 28.9 M.C.-CLDY CHNC. SHWR
SURFACE WIND NOW FROM 323
————————————————————————-
Wednesday

16 Dec 0:00 22.8 2 97 93 25 1.5 4 28.9 M.C.-CLDY CHNC. SHWR
Convective showers very unlikely
16 Dec 1:00 22.5 1 97 91 26 1.4 3 28.9 M.C.-CLDY CHNC. SHWR
16 Dec 2:00 22.3 1 97 90 26 1.4 4 28.9 M.C.-CLDY CHNC. SHWR
SURFACE WIND NOW FROM 225
16 Dec 3:00 22.1 1 97 89 25 1.4 4 28.9 M.C.-CLDY CHNC. SHWR
No convective shower or thunderstorm activity expected
16 Dec 4:00 21.8 0 97 89 25 1.5 4 28.9 M.C.-CLDY CHNC. SHWR
16 Dec 5:00 21.6 0 97 80 28 1.2 3 28.9 M.CLOUDY CHNC. SHWR
SURFACE WIND NOW FROM 117
16 Dec 6:00 21.6 0 96 67 33 1.4 2 28.9 P.-M.CLDY MOD. FOG
16 Dec 7:00 21.7 0 97 50 37 1.5 2 28.9 P.CLOUDY MOD. FOG
16 Dec 8:00 22.0 1 97 47 36 1.2 2 28.9 P.CLOUDY MOD. FOG
SURFACE WIND NOW FROM 63
16 Dec 9:00 22.3 2 97 44 36 1.1 2 28.9 P.CLOUDY MOD. FOG
16 Dec 10:00 23.0 4 95 41 46 2.5 2 28.9 P.CLOUDY MOD. FOG
16 Dec 11:00 24.4 6 89 32 81 14.3 1 28.9 FAIR-P.C. HEAVY DEW
16 Dec 12:00 27.1 8 77 47 74 15.0 3 28.9 P.CLOUDY CHNC. SHWR
Convective showers very unlikely
16 Dec 13:00 30.1 10 64 15 90 15.9 0 28.9 SUNNY
16 Dec 14:00 31.7 12 58 16 90 17.0 0 28.9 SUNNY
16 Dec 15:00 32.2 12 56 49 76 18.0 4 28.9 P.CLOUDY CHNC. SHWR
Convective showers unlikely
16 Dec 16:00 32.3 13 56 18 91 18.9 0 28.9 SUNNY
Convective showers very unlikely
16 Dec 17:00 31.6 12 58 29 89 19.6 1 28.9 M.SUNNY
16 Dec 18:00 29.9 10 64 57 74 19.9 4 28.9 P.CLOUDY CHNC. SHWR
Convective showers unlikely
16 Dec 19:00 27.4 8 74 48 82 19.7 1 28.9 P.CLOUDY
Convective showers very unlikely
16 Dec 20:00 25.7 7 83 47 81 19.1 1 28.9 P.CLOUDY
16 Dec 21:00 24.8 6 87 55 73 18.5 3 28.9 P.CLOUDY CHNC. SHWR
16 Dec 22:00 24.1 5 90 48 66 13.2 2 28.9 P.CLOUDY HEAVY DEW
No convective shower or thunderstorm activity expected
16 Dec 23:00 23.6 5 93 45 55 5.1 1 28.9 P.CLOUDY LIGHT FOG
SURFACE WIND NOW FROM 21
————————————————————————-
Thursday

17 Dec 0:00 23.3 4 94 53 41 2.2 2 28.9 P.CLOUDY MOD. FOG
Convective showers very unlikely
17 Dec 1:00 22.9 4 95 40 40 1.3 1 28.9 FAIR-P.C. MOD. FOG
17 Dec 2:00 22.6 3 95 41 39 1.2 1 28.9 P.CLOUDY MOD. FOG
17 Dec 3:00 22.3 2 95 53 36 1.4 2 28.9 P.CLOUDY DRIZZLE
17 Dec 4:00 22.1 1 95 43 38 1.2 1 28.9 P.CLOUDY MOD. FOG
17 Dec 5:00 21.8 1 95 50 37 1.2 1 28.9 P.CLOUDY MOD. FOG
17 Dec 6:00 22.0 1 95 56 39 2.3 2 28.9 P.-M.CLDY DRIZZLE
17 Dec 7:00 22.6 1 96 62 41 2.7 2 28.9 P.-M.CLDY MOD. FOG
Convective showers unlikely
17 Dec 8:00 23.2 2 95 62 40 2.6 2 28.9 P.-M.CLDY MOD. FOG
17 Dec 9:00 23.6 4 96 61 36 2.1 3 29.1 P.-M.CLDY DRIZZLE
17 Dec 10:00 24.3 6 94 61 42 3.0 2 29.2 P.-M.CLDY MOD. FOG
17 Dec 11:00 25.5 7 90 58 68 14.3 2 29.2 P.CLOUDY HEAVY DEW
17 Dec 12:00 26.1 8 89 64 58 9.7 4 30.1 P.-M.CLDY LIGHT RAIN
Scattered showers possible, but thunder unlikely
17 Dec 13:00 27.8 10 81 54 79 15.9 1 30.6 P.CLOUDY LIGHT DEW
Convective showers unlikely
17 Dec 14:00 30.1 11 70 53 80 16.5 2 30.6 P.CLOUDY
Scattered showers possible, but thunder unlikely
17 Dec 15:00 27.4 11 86 66 56 7.4 5 32.5 P.-M.CLDY MOD. RAIN
Scattered showers or thundershowers possible
17 Dec 16:00 27.7 11 84 51 81 17.3 1 32.9 P.CLOUDY
Scattered showers possible, but thunder unlikely
17 Dec 17:00 27.7 11 83 44 83 17.6 1 32.9 FAIR-P.C.
17 Dec 18:00 26.9 9 86 58 72 17.6 3 32.9 P.CLOUDY CHNC. SHWR
17 Dec 19:00 25.7 9 90 29 64 7.2 1 32.9 FAIR-P.C. LIGHT FOG
Convective showers unlikely
17 Dec 20:00 25.0 7 93 30 42 1.3 1 32.9 FAIR-P.C. MOD. FOG
17 Dec 21:00 24.5 6 94 50 34 1.0 2 32.9 P.CLOUDY MOD. FOG
17 Dec 22:00 24.1 5 95 32 33 0.6 1 32.9 FAIR-P.C. MOD. FOG
17 Dec 23:00 23.7 5 97 47 29 0.5 2 32.9 P.CLOUDY MOD. FOG
————————————————————————-
Friday

18 Dec 0:00 23.4 5 98 62 25 0.6 3 33.0 P.-M.CLDY DRIZZLE
18 Dec 1:00 23.2 5 99 75 24 0.8 5 33.0 M.CLOUDY CHNC. SHWR
Scattered showers possible, but thunder unlikely
18 Dec 2:00 23.0 4 98 75 24 0.8 4 33.0 M.CLOUDY CHNC. SHWR
18 Dec 3:00 22.9 4 98 74 24 0.8 4 33.1 M.CLOUDY DRIZZLE
18 Dec 4:00 22.8 3 98 74 25 0.8 4 33.1 M.CLOUDY CHNC. SHWR
Convective showers unlikely
18 Dec 5:00 22.6 3 97 61 27 0.6 3 33.1 P.-M.CLDY CHNC. SHWR
18 Dec 6:00 22.6 3 97 52 28 0.6 2 33.1 P.CLOUDY DRIZZLE
18 Dec 7:00 22.8 3 97 33 30 0.5 1 33.1 FAIR-P.C. MOD. FOG
Convective showers very unlikely
18 Dec 8:00 23.0 3 98 32 30 0.5 1 33.1 FAIR-P.C. MOD. FOG
18 Dec 9:00 23.2 2 98 30 31 0.5 1 33.1 FAIR-P.C. MOD. FOG
18 Dec 10:00 23.5 2 98 29 32 0.5 1 33.1 FAIR-P.C. MOD. FOG
18 Dec 11:00 23.9 2 98 33 31 0.5 1 33.1 FAIR-P.C. MOD. FOG
SURFACE WIND NOW FROM 48
18 Dec 12:00 24.4 4 97 47 32 0.8 3 33.1 P.CLOUDY CHNC. SHWR
Convective showers unlikely
18 Dec 13:00 24.9 5 95 41 37 1.2 2 33.1 P.CLOUDY CHNC. SHWR
18 Dec 14:00 25.5 7 92 37 55 4.4 2 33.1 FAIR-P.C. LIGHT FOG
18 Dec 15:00 26.3 8 87 49 72 15.0 4 33.1 P.CLOUDY CHNC. SHWR
Scattered showers or thundershowers possible
18 Dec 16:00 27.2 10 82 29 85 15.6 1 33.1 FAIR-P.C. HEAVY DEW
Scattered showers possible, but thunder unlikely
18 Dec 17:00 27.3 10 81 21 88 16.2 1 33.1 M.SUNNY MOD. DEW
Convective showers unlikely
18 Dec 18:00 26.5 9 84 48 75 16.5 3 33.1 P.CLOUDY CHNC. SHWR
Scattered showers possible, but thunder unlikely
18 Dec 19:00 25.1 9 90 5 72 8.6 0 33.1 CLEAR LIGHT FOG
Convective showers unlikely
18 Dec 20:00 24.3 7 93 7 46 1.4 0 33.1 CLEAR MOD. FOG
Convective showers very unlikely
18 Dec 21:00 23.8 5 94 48 37 1.2 2 33.1 P.CLOUDY MOD. FOG
Convective showers unlikely
18 Dec 22:00 23.4 4 96 11 36 0.6 0 33.1 CLEAR MOD. FOG
Convective showers very unlikely
18 Dec 23:00 22.9 4 97 34 32 0.5 0 33.1 FAIR-P.C. MOD. FOG
————————————————————————-
Saturday

19 Dec 0:00 22.6 3 98 64 29 0.7 2 33.1 P.-M.CLDY MOD. FOG
Convective showers unlikely
19 Dec 1:00 22.3 2 98 70 28 0.6 2 33.1 P.-M.CLDY MOD. FOG
Convective showers very unlikely
19 Dec 2:00 22.1 2 99 67 27 0.6 2 33.1 P.-M.CLDY MOD. FOG
SURFACE WIND NOW FROM 346
19 Dec 3:00 21.8 2 99 66 26 0.7 3 33.1 P.-M.CLDY MOD. FOG
19 Dec 4:00 21.9 2 98 68 25 0.8 3 33.1 P.-M.CLDY CHNC. SHWR
19 Dec 5:00 21.8 2 97 54 28 0.7 2 33.1 P.CLOUDY MOD. FOG
19 Dec 6:00 22.1 2 96 46 32 0.9 2 33.1 P.CLOUDY MOD. FOG

Summary (min and max values):

DATE MIN MAX MIN AT MAX AT DEW PT R.HUM %V.S.T. WIND SUNRISE SUNSET
———————————————————————————
12 Dec* 16.9 25.7 6:10 14:20 16 18 65 100 23 74 0 14 4:49 18:39
13 Dec 17.0 19.9 5:00 11:20 17 18 96 100 8 27 6 18 4:49 18:40
14 Dec 16.8 31.8 5:10 14:20 17 20 45 99 17 89 1 10 4:50 18:40
15 Dec 18.1 31.5 5:40 14:20 18 23 57 100 25 65 0 12 4:50 18:41
16 Dec 21.3 32.9 5:50 15:10 21 23 56 98 25 91 0 13 4:50 18:41
17 Dec 21.5 31.4 5:10 14:20 21 25 68 98 25 85 1 12 4:50 18:42
18 Dec 22.3 27.8 5:20 16:30 22 24 81 99 24 91 2 10 4:51 18:42
19 Dec* 21.5 22.7 2:50 0:00 21 22 96 100 25 32 2 3 4:51 18:43

* incomplete data

Supplemental data:(means, except total solar energy, %PCH, PTOT, & max snow depth)
DATE TEMP DEW PT %RH W.SPD RS.WS RS.WD %SC %SUN Wh/m^2 %PCH PTOT SN.DEP MAX SD
———————————————————————————
12 Dec* 20.9 17.7 82 9.9 9.9 146 74 16 4199 83 6.49 0.0 0.0
13 Dec 18.0 17.9 100 11.7 10.8 152 96 1 1395 91 17.01 0.0 0.0
14 Dec 23.0 17.9 77 5.5 1.5 74 62 62 7198 85 3.04 0.0 0.0
15 Dec 23.4 20.6 86 4.9 4.5 42 78 30 4978 92 2.33 0.0 0.0
16 Dec 25.4 22.1 84 5.2 5.0 61 53 62 5905 11 0.00 0.0 0.0
17 Dec 24.7 23.1 91 5.9 5.9 21 51 48 5228 84 4.12 0.0 0.0
18 Dec 24.1 23.1 94 4.9 4.8 40 42 35 3760 44 0.08 0.0 0.0
19 Dec* 22.1 21.7 98 2.0 1.7 16 63 51 39 24 0.03 0.0 0.0